createdAt,value
2022-12-01T00:01:47.596Z,71.02
2022-12-01T00:04:16.932Z,71.87
2022-12-01T00:06:46.165Z,76.17
2022-12-01T00:09:34.045Z,76.15
2022-12-01T00:12:03.350Z,77.05
2022-12-01T00:14:32.598Z,77.75
2022-12-01T00:17:02.070Z,74.67
2022-12-01T00:19:31.354Z,77.75
2022-12-01T00:22:00.740Z,76.82
2022-12-01T00:24:29.965Z,77.90
2022-12-01T00:26:59.204Z,72.42
2022-12-01T00:29:28.508Z,71.57
2022-12-01T00:31:57.941Z,75.32
2022-12-01T00:34:28.113Z,73.65
2022-12-01T00:36:57.410Z,73.95
2022-12-01T00:39:26.926Z,78.97
2022-12-01T00:41:56.339Z,86.05
2022-12-01T00:44:25.798Z,76.87
2022-12-01T00:46:55.234Z,80.32
2022-12-01T00:49:24.713Z,73.42
2022-12-01T00:51:54.021Z,78.40
2022-12-01T00:54:23.302Z,80.28
2022-12-01T00:56:52.737Z,85.83
2022-12-01T00:59:22.123Z,81.00
2022-12-01T01:01:52.651Z,83.17
2022-12-01T01:04:22.360Z,83.70
2022-12-01T01:06:52.569Z,85.95
2022-12-01T01:09:21.815Z,81.22
2022-12-01T01:11:51.069Z,85.28
2022-12-01T01:14:20.940Z,87.53
2022-12-01T01:16:50.419Z,84.80
2022-12-01T01:19:19.681Z,86.08
2022-12-01T01:21:48.910Z,84.97
2022-12-01T01:24:18.301Z,86.20
2022-12-01T01:26:47.526Z,82.72
2022-12-01T01:29:17.030Z,81.57
2022-12-01T01:31:46.253Z,79.15
2022-12-01T01:34:15.626Z,89.97
2022-12-01T01:36:44.997Z,82.88
2022-12-01T01:39:14.290Z,82.88
2022-12-01T01:41:43.876Z,86.60
2022-12-01T01:44:42.508Z,84.95
2022-12-01T01:47:11.991Z,83.82
2022-12-01T01:49:42.671Z,89.17
2022-12-01T01:52:11.903Z,86.30
2022-12-01T01:54:43.683Z,90.32
2022-12-01T01:57:15.311Z,89.52
2022-12-01T01:59:48.374Z,93.00
2022-12-01T02:02:18.169Z,95.47
2022-12-01T02:04:49.974Z,92.72
2022-12-01T02:07:20.733Z,95.85
2022-12-01T02:09:50.529Z,97.25
2022-12-01T02:12:28.759Z,97.88
2022-12-01T02:15:20.823Z,96.70
2022-12-01T02:18:01.918Z,102.33
2022-12-01T02:20:49.728Z,105.95
2022-12-01T02:23:33.943Z,106.12
2022-12-01T02:26:21.234Z,112.25
2022-12-01T02:28:59.548Z,115.52
2022-12-01T02:31:46.662Z,114.95
2022-12-01T02:34:46.088Z,116.00
2022-12-01T02:37:21.578Z,116.65
2022-12-01T02:40:12.533Z,124.20
2022-12-01T02:42:52.043Z,126.05
2022-12-01T02:45:27.498Z,123.22
2022-12-01T02:48:00.441Z,126.65
2022-12-01T02:50:31.522Z,117.42
2022-12-01T02:53:02.643Z,132.85
2022-12-01T02:55:32.065Z,141.53
2022-12-01T02:58:01.487Z,122.75
2022-12-01T03:00:32.062Z,129.78
2022-12-01T03:03:10.427Z,137.28
2022-12-01T03:05:42.813Z,140.35
2022-12-01T03:08:31.540Z,131.47
2022-12-01T03:11:02.730Z,136.28
2022-12-01T03:14:10.267Z,136.37
2022-12-01T03:16:48.896Z,142.75
2022-12-01T03:19:30.024Z,146.30
2022-12-01T03:22:11.651Z,133.55
2022-12-01T03:24:43.408Z,131.47
2022-12-01T03:27:13.873Z,140.85
2022-12-01T03:29:45.474Z,123.80
2022-12-01T03:32:21.237Z,131.40
2022-12-01T03:35:10.823Z,138.22
2022-12-01T03:37:46.318Z,139.00
2022-12-01T03:40:18.354Z,135.22
2022-12-01T03:42:59.308Z,136.88
2022-12-01T03:45:48.345Z,123.60
2022-12-01T03:48:18.021Z,131.85
2022-12-01T03:50:56.136Z,135.43
2022-12-01T03:53:31.788Z,142.85
2022-12-01T03:56:03.666Z,138.72
2022-12-01T03:58:41.696Z,137.20
2022-12-01T04:01:11.373Z,136.32
2022-12-01T04:03:40.749Z,140.15
2022-12-01T04:06:10.036Z,142.22
2022-12-01T04:08:40.009Z,144.57
2022-12-01T04:11:32.387Z,135.43
2022-12-01T04:13:58.626Z,135.80
2022-12-01T04:16:27.935Z,132.32
2022-12-01T04:18:57.446Z,134.00
2022-12-01T04:21:26.657Z,130.27
2022-12-01T04:24:01.970Z,137.45
2022-12-01T04:26:34.015Z,138.62
2022-12-01T04:29:05.329Z,139.37
2022-12-01T04:31:35.243Z,135.60
2022-12-01T04:34:04.591Z,141.32
2022-12-01T04:36:35.453Z,141.07
2022-12-01T04:39:05.207Z,141.82
2022-12-01T04:41:34.482Z,153.97
2022-12-01T04:44:03.704Z,142.60
2022-12-01T04:46:33.019Z,136.57
2022-12-01T04:49:02.229Z,143.07
2022-12-01T04:51:32.098Z,142.40
2022-12-01T04:54:03.112Z,144.50
2022-12-01T04:56:33.644Z,138.97
2022-12-01T04:59:02.913Z,137.22
2022-12-01T05:01:32.368Z,139.85
2022-12-01T05:04:01.858Z,145.10
2022-12-01T05:06:31.338Z,138.70
2022-12-01T05:09:02.464Z,138.82
2022-12-01T05:11:32.993Z,137.70
2022-12-01T05:14:02.300Z,133.03
2022-12-01T05:16:33.132Z,131.37
2022-12-01T05:19:16.036Z,133.18
2022-12-01T05:21:47.479Z,132.82
2022-12-01T05:24:17.623Z,125.07
2022-12-01T05:26:46.848Z,128.97
2022-12-01T05:29:16.343Z,123.07
2022-12-01T05:31:47.298Z,124.55
2022-12-01T05:34:16.661Z,125.82
2022-12-01T05:36:45.894Z,119.22
2022-12-01T05:39:15.303Z,126.07
2022-12-01T05:41:44.504Z,129.63
2022-12-01T05:44:13.758Z,127.65
2022-12-01T05:46:43.224Z,124.50
2022-12-01T05:49:12.598Z,132.20
2022-12-01T05:51:43.365Z,132.03
2022-12-01T05:54:12.605Z,122.55
2022-12-01T05:56:41.901Z,126.02
2022-12-01T05:59:11.135Z,119.05
2022-12-01T06:01:40.397Z,121.10
2022-12-01T06:04:09.752Z,119.08
2022-12-01T06:06:39.233Z,116.65
2022-12-01T06:09:09.094Z,116.77
2022-12-01T06:11:38.489Z,118.75
2022-12-01T06:14:07.751Z,127.20
2022-12-01T06:16:37.309Z,114.67
2022-12-01T06:19:06.605Z,118.37
2022-12-01T06:21:35.949Z,120.13
2022-12-01T06:24:05.407Z,121.10
2022-12-01T06:26:34.643Z,123.10
2022-12-01T06:29:03.884Z,111.85
2022-12-01T06:31:33.183Z,116.33
2022-12-01T06:34:02.420Z,121.30
2022-12-01T06:36:31.655Z,112.17
2022-12-01T06:39:00.986Z,115.97
2022-12-01T06:41:30.480Z,114.03
2022-12-01T06:43:59.744Z,114.47
2022-12-01T06:46:29.383Z,106.72
2022-12-01T06:48:58.757Z,108.65
2022-12-01T06:51:28.633Z,105.22
2022-12-01T06:54:03.797Z,109.87
2022-12-01T06:56:29.614Z,110.50
2022-12-01T06:58:59.254Z,116.12
2022-12-01T07:01:29.124Z,119.00
2022-12-01T07:03:58.469Z,126.35
2022-12-01T07:06:27.889Z,129.25
2022-12-01T07:08:58.784Z,138.90
2022-12-01T07:11:28.466Z,151.70
2022-12-01T07:13:57.889Z,142.45
2022-12-01T07:16:27.167Z,151.93
2022-12-01T07:18:56.605Z,165.25
2022-12-01T07:21:25.847Z,156.90
2022-12-01T07:23:56.025Z,156.47
2022-12-01T07:26:25.309Z,169.77
2022-12-01T07:28:54.792Z,169.77
2022-12-01T07:31:24.134Z,172.30
2022-12-01T07:33:54.019Z,174.57
2022-12-01T07:36:23.272Z,178.25
2022-12-01T07:38:52.536Z,177.55
2022-12-01T07:41:21.813Z,175.40
2022-12-01T07:43:52.240Z,183.15
2022-12-01T07:46:24.424Z,173.82
2022-12-01T07:48:55.131Z,190.73
2022-12-01T07:51:25.565Z,182.20
2022-12-01T07:53:55.984Z,177.45
2022-12-01T07:56:25.278Z,184.87
2022-12-01T07:58:54.663Z,200.30
2022-12-01T08:01:25.103Z,188.40
2022-12-01T08:03:57.000Z,183.15
2022-12-01T08:06:27.214Z,196.57
2022-12-01T08:08:57.013Z,207.50
2022-12-01T08:11:29.970Z,195.40
2022-12-01T08:13:59.621Z,211.30
2022-12-01T08:16:28.900Z,210.60
2022-12-01T08:18:58.151Z,202.13
2022-12-01T08:21:27.396Z,194.57
2022-12-01T08:23:57.980Z,194.60
2022-12-01T08:26:27.981Z,195.30
2022-12-01T08:28:58.307Z,207.10
2022-12-01T08:31:32.951Z,200.97
2022-12-01T08:34:04.223Z,187.68
2022-12-01T08:36:33.896Z,197.05
2022-12-01T08:39:03.378Z,199.00
2022-12-01T08:41:32.698Z,191.73
2022-12-01T08:44:02.145Z,195.92
2022-12-01T08:46:33.801Z,190.75
2022-12-01T08:49:04.727Z,203.47
2022-12-01T08:51:34.068Z,205.18
2022-12-01T08:54:03.736Z,195.80
2022-12-01T08:56:35.658Z,212.30
2022-12-01T08:59:05.415Z,187.20
2022-12-01T09:01:35.295Z,186.00
2022-12-01T09:04:09.797Z,183.00
2022-12-01T09:06:43.542Z,178.32
2022-12-01T09:09:16.554Z,172.53
2022-12-01T09:11:46.267Z,173.10
2022-12-01T09:14:18.177Z,167.57
2022-12-01T09:16:49.809Z,171.98
2022-12-01T09:19:24.548Z,166.57
2022-12-01T09:21:51.513Z,162.62
2022-12-01T09:24:21.008Z,155.20
2022-12-01T09:26:50.708Z,143.07
2022-12-01T09:29:20.294Z,143.35
2022-12-01T09:31:49.609Z,132.57
2022-12-01T09:34:20.652Z,135.18
2022-12-01T09:36:50.342Z,124.92
2022-12-01T09:39:21.160Z,122.53
2022-12-01T09:42:07.597Z,116.15
2022-12-01T09:44:37.193Z,116.10
2022-12-01T09:47:12.941Z,114.08
2022-12-01T09:50:03.774Z,109.72
2022-12-01T09:52:42.127Z,103.60
2022-12-01T09:55:16.311Z,99.20
2022-12-01T09:57:50.710Z,89.85
2022-12-01T10:00:26.225Z,81.32
2022-12-01T10:02:58.344Z,80.85
2022-12-01T10:05:30.461Z,84.75
2022-12-01T10:08:08.332Z,82.72
2022-12-01T10:10:49.104Z,77.25
2022-12-01T10:13:21.024Z,77.55
2022-12-01T10:15:59.641Z,72.05
2022-12-01T10:18:57.579Z,73.67
2022-12-01T10:21:48.543Z,70.75
2022-12-01T10:24:23.933Z,70.57
2022-12-01T10:26:56.568Z,69.32
2022-12-01T10:29:31.946Z,73.22
2022-12-01T10:32:21.877Z,74.50
2022-12-01T10:34:51.443Z,78.17
2022-12-01T10:37:26.315Z,76.28
2022-12-01T10:39:57.272Z,71.65
2022-12-01T10:42:37.859Z,66.28
2022-12-01T10:45:10.533Z,69.65
2022-12-01T10:50:10.917Z,69.60
2022-12-01T10:52:43.566Z,72.15
2022-12-01T10:57:58.929Z,74.40
2022-12-01T11:01:01.950Z,74.10
2022-12-01T11:03:03.067Z,75.57
2022-12-01T11:05:35.485Z,70.00
2022-12-01T11:08:04.902Z,72.25
2022-12-01T11:55:25.673Z,89.03
2022-12-01T11:57:58.122Z,87.40
2022-12-01T12:00:30.504Z,93.07
2022-12-01T12:03:21.749Z,86.87
2022-12-01T12:06:18.143Z,90.47
2022-12-01T12:09:02.110Z,87.30
2022-12-01T12:11:46.992Z,85.03
2022-12-01T12:14:22.607Z,86.12
2022-12-01T12:17:15.260Z,82.82
2022-12-01T12:20:09.677Z,83.87
2022-12-01T12:22:52.333Z,81.53
2022-12-01T12:25:28.433Z,84.95
2022-12-01T12:28:20.315Z,83.00
2022-12-01T12:31:05.029Z,78.28
2022-12-01T12:33:43.195Z,76.95
2022-12-01T12:36:38.294Z,78.05
2022-12-01T12:39:32.064Z,78.28
2022-12-01T12:42:03.861Z,77.25
2022-12-01T12:44:48.243Z,76.53
2022-12-01T12:47:23.476Z,78.12
2022-12-01T12:50:01.823Z,74.60
2022-12-01T12:52:36.507Z,77.08
2022-12-01T12:55:23.910Z,80.12
2022-12-01T12:57:59.158Z,72.03
2022-12-01T13:00:30.010Z,73.83
2022-12-01T13:03:34.968Z,71.40
2022-12-01T13:06:13.350Z,63.25
2022-12-01T13:08:54.969Z,69.47
2022-12-01T13:11:27.597Z,64.32
2022-12-01T13:16:33.478Z,71.15
2022-12-01T13:21:51.061Z,72.72
2022-12-01T13:24:24.201Z,69.58
2022-12-01T13:27:04.539Z,70.30
2022-12-01T13:29:46.114Z,67.00
2022-12-01T13:32:07.875Z,69.03
2022-12-01T13:34:42.380Z,75.55
2022-12-01T13:37:12.144Z,68.47
2022-12-01T13:39:42.747Z,69.10
2022-12-01T13:42:26.316Z,70.97
2022-12-01T13:45:01.181Z,71.62
2022-12-01T13:47:51.464Z,66.65
2022-12-01T13:50:46.815Z,66.60
2022-12-01T13:53:22.910Z,67.35
2022-12-01T13:56:19.808Z,67.15
2022-12-01T13:58:51.700Z,66.50
2022-12-01T14:01:24.346Z,68.67
2022-12-01T14:04:01.972Z,60.75
2022-12-01T14:06:42.212Z,62.25
2022-12-01T14:09:34.547Z,59.93
2022-12-01T14:12:06.873Z,62.50
2022-12-01T14:14:39.554Z,60.38
2022-12-01T14:19:53.371Z,64.90
2022-12-01T14:22:44.095Z,66.70
2022-12-01T14:25:27.031Z,65.12
2022-12-01T14:30:45.824Z,67.45
2022-12-01T14:33:46.700Z,71.33
2022-12-01T14:36:37.359Z,69.35
2022-12-01T14:39:16.052Z,71.30
2022-12-01T14:41:47.939Z,74.62
2022-12-01T14:44:26.701Z,67.82
2022-12-01T14:46:59.246Z,72.97
2022-12-01T14:52:07.931Z,68.85
2022-12-01T14:54:46.064Z,72.27
2022-12-01T14:57:17.961Z,71.20
2022-12-01T14:59:47.175Z,74.10
2022-12-01T15:02:16.673Z,74.95
2022-12-01T15:05:17.640Z,69.87
2022-12-01T15:08:06.721Z,76.22
2022-12-01T15:10:36.927Z,77.80
2022-12-01T15:13:30.867Z,75.40
2022-12-01T15:16:03.114Z,69.40
2022-12-01T15:18:39.905Z,75.50
2022-12-01T15:21:21.211Z,74.58
2022-12-01T15:24:22.115Z,73.42
2022-12-01T15:27:02.088Z,77.80
2022-12-01T15:29:36.504Z,76.67
2022-12-01T15:32:08.279Z,74.35
2022-12-01T15:34:46.310Z,77.53
2022-12-01T15:37:21.115Z,82.27
2022-12-01T15:40:47.797Z,84.50
2022-12-01T15:42:38.237Z,88.17
2022-12-01T15:45:22.070Z,79.53
2022-12-01T15:47:54.530Z,77.47
2022-12-01T15:53:04.977Z,86.02
2022-12-01T15:55:38.539Z,78.72
2022-12-01T15:58:09.098Z,83.37
2022-12-01T16:00:38.485Z,76.10
2022-12-01T16:03:12.189Z,79.42
2022-12-01T16:05:44.257Z,80.53
2022-12-01T16:08:22.396Z,82.80
2022-12-01T16:11:16.025Z,85.05
2022-12-01T16:13:51.222Z,87.57
2022-12-01T16:16:41.271Z,87.67
2022-12-01T16:19:14.267Z,85.90
2022-12-01T16:21:49.744Z,93.92
2022-12-01T16:24:24.782Z,98.40
2022-12-01T16:26:56.567Z,97.97
2022-12-01T16:29:27.590Z,91.22
2022-12-01T16:32:19.230Z,82.92
2022-12-01T16:34:46.024Z,89.80
2022-12-01T16:37:01.137Z,89.05
2022-12-01T16:39:30.434Z,83.47
2022-12-01T16:42:01.449Z,95.20
2022-12-01T16:44:30.702Z,99.20
2022-12-01T16:47:00.001Z,102.70
2022-12-01T16:49:29.274Z,104.65
2022-12-01T16:52:01.245Z,104.83
2022-12-01T16:54:29.818Z,112.68
2022-12-01T16:56:59.173Z,109.95
2022-12-01T16:59:28.605Z,102.07
2022-12-01T17:01:58.062Z,105.52
2022-12-01T17:04:27.279Z,111.47
2022-12-01T17:06:56.994Z,115.90
2022-12-01T17:09:26.240Z,115.62
2022-12-01T17:11:56.514Z,124.60
2022-12-01T17:14:26.396Z,122.92
2022-12-01T17:17:00.222Z,129.72
2022-12-01T17:19:26.755Z,127.00
2022-12-01T17:21:57.198Z,124.78
2022-12-01T17:24:26.433Z,125.30
2022-12-01T17:26:55.946Z,126.97
2022-12-01T17:29:26.272Z,138.82
2022-12-01T17:31:55.485Z,143.97
2022-12-01T17:34:24.954Z,135.75
2022-12-01T17:36:54.627Z,144.75
2022-12-01T17:39:24.336Z,144.25
2022-12-01T17:41:55.691Z,144.15
2022-12-01T17:44:25.202Z,143.00
2022-12-01T17:46:54.556Z,136.40
2022-12-01T17:49:24.326Z,152.95
2022-12-01T17:51:53.590Z,149.25
2022-12-01T17:54:22.995Z,151.85
2022-12-01T17:56:52.238Z,148.53
2022-12-01T17:59:21.817Z,149.40
2022-12-01T18:01:51.313Z,155.67
2022-12-01T18:04:20.733Z,159.63
2022-12-01T18:06:54.096Z,161.82
2022-12-01T18:09:21.218Z,155.37
2022-12-01T18:11:50.850Z,156.20
2022-12-01T18:14:20.327Z,159.63
2022-12-01T18:16:49.938Z,162.47
2022-12-01T18:19:19.757Z,157.20
2022-12-01T18:21:50.528Z,168.02
2022-12-01T18:24:19.941Z,158.97
2022-12-01T18:26:49.944Z,183.68
2022-12-01T18:29:28.095Z,169.97
2022-12-01T18:31:58.814Z,176.87
2022-12-01T18:34:32.327Z,174.38
2022-12-01T18:37:03.124Z,160.48
2022-12-01T18:39:32.830Z,167.07
2022-12-01T18:42:02.519Z,164.55
2022-12-01T18:44:32.014Z,170.95
2022-12-01T18:47:03.017Z,178.32
2022-12-01T18:49:32.350Z,180.27
2022-12-01T18:52:03.613Z,181.60
2022-12-01T18:54:32.952Z,173.07
2022-12-01T18:57:02.292Z,184.05
2022-12-01T18:59:31.773Z,176.90
2022-12-01T19:02:02.391Z,181.40
2022-12-01T19:04:31.693Z,181.78
2022-12-01T19:07:01.177Z,186.35
2022-12-01T19:09:30.443Z,178.72
2022-12-01T19:12:00.702Z,196.80
2022-12-01T19:14:30.269Z,191.03
2022-12-01T19:17:00.821Z,191.50
2022-12-01T19:19:35.850Z,183.30
2022-12-01T19:22:01.229Z,186.18
2022-12-01T19:24:30.516Z,196.78
2022-12-01T19:27:00.076Z,198.90
2022-12-01T19:29:29.288Z,200.87
2022-12-01T19:31:59.013Z,192.18
2022-12-01T19:34:28.334Z,192.57
2022-12-01T19:36:57.915Z,200.40
2022-12-01T19:39:27.339Z,191.82
2022-12-01T19:41:58.268Z,191.70
2022-12-01T19:44:27.691Z,184.20
2022-12-01T19:46:57.277Z,199.97
2022-12-01T19:49:26.712Z,193.20
2022-12-01T19:51:56.440Z,197.53
2022-12-01T19:54:28.434Z,192.55
2022-12-01T19:56:57.878Z,186.82
2022-12-01T19:59:27.293Z,182.05
2022-12-01T20:01:56.694Z,200.53
2022-12-01T20:04:26.096Z,186.25
2022-12-01T20:06:55.502Z,186.12
2022-12-01T20:09:24.805Z,191.95
2022-12-01T20:11:55.121Z,190.05
2022-12-01T20:14:24.579Z,179.27
2022-12-01T20:16:58.898Z,190.73
2022-12-01T20:19:28.233Z,204.10
2022-12-01T20:21:57.536Z,216.50
2022-12-01T20:24:26.767Z,203.07
2022-12-01T20:26:58.871Z,221.37
2022-12-01T20:29:29.992Z,214.70
2022-12-01T20:32:01.080Z,212.48
2022-12-01T20:34:36.137Z,220.12
2022-12-01T20:37:05.927Z,211.50
2022-12-01T20:39:36.919Z,220.73
2022-12-01T20:42:06.768Z,224.62
2022-12-01T20:44:36.858Z,204.60
2022-12-01T20:47:06.346Z,208.60
2022-12-01T20:49:36.114Z,206.63
2022-12-01T20:52:05.721Z,207.50
2022-12-01T20:54:35.030Z,211.52
2022-12-01T20:57:04.548Z,218.63
2022-12-01T20:59:33.998Z,197.50
2022-12-01T21:02:03.378Z,211.62
2022-12-01T21:04:32.925Z,205.52
2022-12-01T21:07:02.133Z,200.22
2022-12-01T21:09:31.887Z,211.55
2022-12-01T21:12:20.452Z,206.20
2022-12-01T21:14:58.979Z,196.22
2022-12-01T21:17:36.714Z,192.82
2022-12-01T21:20:27.249Z,204.70
2022-12-01T21:22:59.662Z,212.15
2022-12-01T21:25:29.325Z,201.10
2022-12-01T21:28:01.350Z,201.50
2022-12-01T21:30:31.318Z,206.72
2022-12-01T21:33:03.762Z,201.73
2022-12-01T21:35:33.232Z,199.10
2022-12-01T21:38:05.277Z,193.75
2022-12-01T21:40:35.096Z,201.42
2022-12-01T21:43:23.427Z,194.80
2022-12-01T21:45:58.618Z,202.22
2022-12-01T21:48:31.213Z,201.65
2022-12-01T21:53:35.903Z,187.50
2022-12-01T21:56:05.338Z,193.37
2022-12-01T21:58:37.406Z,194.17
2022-12-01T22:01:12.799Z,177.45
2022-12-01T22:03:46.679Z,182.55
2022-12-01T22:06:31.751Z,178.62
2022-12-01T22:08:56.925Z,190.12
2022-12-01T22:11:28.661Z,178.27
2022-12-01T22:14:13.538Z,178.87
2022-12-01T22:16:52.218Z,172.25
2022-12-01T22:19:35.584Z,178.80
2022-12-01T22:22:08.146Z,176.70
2022-12-01T22:27:38.503Z,165.60
2022-12-01T22:30:10.893Z,171.85
2022-12-01T22:32:52.935Z,172.62
2022-12-01T22:35:27.901Z,173.80
2022-12-01T22:38:30.901Z,175.03
2022-12-01T22:41:05.086Z,167.32
2022-12-01T22:43:45.750Z,165.12
2022-12-01T22:46:40.743Z,153.53
2022-12-01T22:49:19.706Z,162.22
2022-12-01T22:51:57.984Z,151.93
2022-12-01T22:54:33.021Z,158.07
2022-12-01T22:57:32.439Z,150.90
2022-12-01T23:00:19.058Z,151.25
2022-12-01T23:02:52.117Z,152.02
2022-12-01T23:05:31.668Z,157.67
2022-12-01T23:08:01.708Z,156.78
2022-12-01T23:10:32.631Z,160.20
2022-12-01T23:13:06.307Z,151.78
2022-12-01T23:15:40.755Z,145.53
2022-12-01T23:18:15.870Z,157.22
2022-12-01T23:20:47.775Z,140.75
2022-12-01T23:23:19.859Z,149.75
2022-12-01T23:25:50.768Z,148.85
2022-12-01T23:28:20.592Z,144.13
2022-12-01T23:30:52.459Z,157.97
2022-12-01T23:33:27.659Z,150.10
2022-12-01T23:36:08.635Z,149.00
2022-12-01T23:38:42.879Z,149.25
2022-12-01T23:41:15.426Z,150.85
2022-12-01T23:43:46.044Z,155.10
2022-12-01T23:46:23.777Z,144.25
2022-12-01T23:48:55.549Z,151.97
2022-12-01T23:51:33.616Z,152.33
2022-12-01T23:54:06.034Z,162.88
2022-12-01T23:56:37.103Z,155.65
2022-12-01T23:59:09.340Z,153.75
